Terminal Aerodrome Forecast
Issued by NWS

Home | Current Version | Previous Version | Text Only | Print | Product List | Glossary On
Versions: 1 2 3 4 5 6 7 8 9 10 11 12
000
FTUS44 KOUN 242321
TAFCSM
TAF
KCSM 242321Z 2500/2524 15011KT P6SM SCT040 BKN150
     FM251000 16012KT 6SM -SHRA OVC040 PROB30 2510/2516 4SM -TSRA
      BKN025CB
     FM251600 18012KT 4SM RA OVC025
      TEMPO 2516/2520 1SM TSRA OVC020CB=

USA.gov is the U.S. government's official web portal to all federal, state and local government web resources and services.